Aycock, Louisiana
Current Conditions -  °F | °C
As of 9:36 PM on Sunday 23 Nov 2014 (Local Time) from KMNE Reporting Station
Clear Clear  
Wind Chill: 64°   Ceiling: Unl
Heat Index: 64°   Visibility: 10mi
Dew Point: 55°   Wind: 10mph
Humidity: 73%   Direction: 240°WSW
Pressure: 29.59"   Gusts: NA
Location:  32.7443°N, 92.9625°W
Report Text: KMNE 240336Z AUTO 24009KT 10SM CLR 18/13 A2959 RMK AO2
Loading
Personal Weather Stations






























Interactive Weather Map New forecast layout! Learn more

10-Day Weather Forecast

Advertisements
Track Severe Weather on mobile